sensor_id;sensor_type;location;lat;lon;timestamp;temperature;humidity
69595;DHT22;56800;52.142;5.364;2023-07-20T00:02:23;17.70;72.00
69595;DHT22;56800;52.142;5.364;2023-07-20T00:04:50;17.70;72.00
69595;DHT22;56800;52.142;5.364;2023-07-20T00:07:17;17.60;72.00
69595;DHT22;56800;52.142;5.364;2023-07-20T00:09:43;17.60;72.00
69595;DHT22;56800;52.142;5.364;2023-07-20T00:12:10;17.60;72.00
69595;DHT22;56800;52.142;5.364;2023-07-20T00:14:37;17.50;71.90
69595;DHT22;56800;52.142;5.364;2023-07-20T00:17:04;17.50;72.00
69595;DHT22;56800;52.142;5.364;2023-07-20T00:19:31;17.40;72.00
69595;DHT22;56800;52.142;5.364;2023-07-20T00:21:58;17.40;71.90
69595;DHT22;56800;52.142;5.364;2023-07-20T00:24:25;17.40;72.00
69595;DHT22;56800;52.142;5.364;2023-07-20T00:26:52;17.30;72.00
69595;DHT22;56800;52.142;5.364;2023-07-20T00:29:19;17.30;72.00
69595;DHT22;56800;52.142;5.364;2023-07-20T00:31:46;17.30;72.10
69595;DHT22;56800;52.142;5.364;2023-07-20T00:34:14;17.20;72.10
69595;DHT22;56800;52.142;5.364;2023-07-20T00:36:41;17.20;72.20
69595;DHT22;56800;52.142;5.364;2023-07-20T00:39:08;17.20;72.20
69595;DHT22;56800;52.142;5.364;2023-07-20T00:41:34;17.20;72.20
69595;DHT22;56800;52.142;5.364;2023-07-20T00:44:02;17.20;73.10
69595;DHT22;56800;52.142;5.364;2023-07-20T00:46:29;17.10;72.40
69595;DHT22;56800;52.142;5.364;2023-07-20T00:48:56;17.10;72.40
69595;DHT22;56800;52.142;5.364;2023-07-20T00:51:23;17.10;72.40
69595;DHT22;56800;52.142;5.364;2023-07-20T00:53:51;17.10;73.20
69595;DHT22;56800;52.142;5.364;2023-07-20T00:56:18;17.10;72.50
69595;DHT22;56800;52.142;5.364;2023-07-20T00:58:46;17.10;72.60
69595;DHT22;56800;52.142;5.364;2023-07-20T01:01:13;17.10;72.60
69595;DHT22;56800;52.142;5.364;2023-07-20T01:03:40;17.10;72.60
69595;DHT22;56800;52.142;5.364;2023-07-20T01:06:29;17.00;72.50
69595;DHT22;56800;52.142;5.364;2023-07-20T01:09:12;17.00;72.70
69595;DHT22;56800;52.142;5.364;2023-07-20T01:11:57;17.00;72.70
69595;DHT22;56800;52.142;5.364;2023-07-20T01:14:26;17.00;72.60
69595;DHT22;56800;52.142;5.364;2023-07-20T01:16:53;17.00;72.70
69595;DHT22;56800;52.142;5.364;2023-07-20T01:19:20;16.90;72.60
69595;DHT22;56800;52.142;5.364;2023-07-20T01:24:44;16.90;72.70
69595;DHT22;56800;52.142;5.364;2023-07-20T01:27:46;16.80;72.70
69595;DHT22;56800;52.142;5.364;2023-07-20T01:33:05;16.80;72.60
69595;DHT22;56800;52.142;5.364;2023-07-20T01:35:33;16.70;72.40
69595;DHT22;56800;52.142;5.364;2023-07-20T01:38:01;16.70;72.40
69595;DHT22;56800;52.142;5.364;2023-07-20T01:40:29;16.70;72.40
69595;DHT22;56800;52.142;5.364;2023-07-20T01:42:56;16.60;72.30
69595;DHT22;56800;52.142;5.364;2023-07-20T01:45:22;16.60;72.40
69595;DHT22;56800;52.142;5.364;2023-07-20T01:47:49;16.50;72.40
69595;DHT22;56800;52.142;5.364;2023-07-20T01:50:16;16.50;72.50
69595;DHT22;56800;52.142;5.364;2023-07-20T01:52:43;16.50;72.50
69595;DHT22;56800;52.142;5.364;2023-07-20T01:55:09;16.50;72.60
69595;DHT22;56800;52.142;5.364;2023-07-20T01:57:36;16.50;72.70
69595;DHT22;56800;52.142;5.364;2023-07-20T02:00:04;16.40;72.60
69595;DHT22;56800;52.142;5.364;2023-07-20T02:02:31;16.40;72.80
69595;DHT22;56800;52.142;5.364;2023-07-20T02:04:58;16.40;72.90
69595;DHT22;56800;52.142;5.364;2023-07-20T02:07:25;16.40;73.70
69595;DHT22;56800;52.142;5.364;2023-07-20T02:09:51;16.40;73.10
69595;DHT22;56800;52.142;5.364;2023-07-20T02:12:18;16.40;73.10
69595;DHT22;56800;52.142;5.364;2023-07-20T02:14:45;16.40;73.10
69595;DHT22;56800;52.142;5.364;2023-07-20T02:17:12;16.30;73.10
69595;DHT22;56800;52.142;5.364;2023-07-20T02:19:40;16.40;73.30
69595;DHT22;56800;52.142;5.364;2023-07-20T02:22:07;16.30;73.30
69595;DHT22;56800;52.142;5.364;2023-07-20T02:24:34;16.40;73.40
69595;DHT22;56800;52.142;5.364;2023-07-20T02:27:00;16.30;73.30
69595;DHT22;56800;52.142;5.364;2023-07-20T02:29:27;16.30;73.30
69595;DHT22;56800;52.142;5.364;2023-07-20T02:31:54;16.30;73.30
69595;DHT22;56800;52.142;5.364;2023-07-20T02:34:21;16.30;73.30
69595;DHT22;56800;52.142;5.364;2023-07-20T02:36:48;16.30;73.30
69595;DHT22;56800;52.142;5.364;2023-07-20T02:39:14;16.30;73.30
69595;DHT22;56800;52.142;5.364;2023-07-20T02:41:41;16.20;73.30
69595;DHT22;56800;52.142;5.364;2023-07-20T02:44:08;16.20;73.20
69595;DHT22;56800;52.142;5.364;2023-07-20T02:46:35;16.20;73.20
69595;DHT22;56800;52.142;5.364;2023-07-20T02:49:02;16.20;74.00
69595;DHT22;56800;52.142;5.364;2023-07-20T02:51:28;16.20;73.30
69595;DHT22;56800;52.142;5.364;2023-07-20T02:53:55;16.20;73.30
69595;DHT22;56800;52.142;5.364;2023-07-20T02:56:22;16.10;73.20
69595;DHT22;56800;52.142;5.364;2023-07-20T02:58:51;16.10;73.20
69595;DHT22;56800;52.142;5.364;2023-07-20T03:01:18;16.00;73.10
69595;DHT22;56800;52.142;5.364;2023-07-20T03:03:45;16.00;73.10
69595;DHT22;56800;52.142;5.364;2023-07-20T03:06:14;16.00;73.20
69595;DHT22;56800;52.142;5.364;2023-07-20T03:08:42;16.00;73.20
69595;DHT22;56800;52.142;5.364;2023-07-20T03:11:11;15.90;73.10
69595;DHT22;56800;52.142;5.364;2023-07-20T03:13:38;15.90;73.20
69595;DHT22;56800;52.142;5.364;2023-07-20T03:16:05;15.80;73.10
69595;DHT22;56800;52.142;5.364;2023-07-20T03:18:31;15.80;73.30
69595;DHT22;56800;52.142;5.364;2023-07-20T03:20:58;15.80;73.40
69595;DHT22;56800;52.142;5.364;2023-07-20T03:23:25;15.80;73.50
69595;DHT22;56800;52.142;5.364;2023-07-20T03:25:52;15.80;73.60
69595;DHT22;56800;52.142;5.364;2023-07-20T03:28:21;15.80;73.60
69595;DHT22;56800;52.142;5.364;2023-07-20T03:30:57;15.80;73.70
69595;DHT22;56800;52.142;5.364;2023-07-20T03:33:29;15.80;73.80
69595;DHT22;56800;52.142;5.364;2023-07-20T03:35:56;15.80;73.80
69595;DHT22;56800;52.142;5.364;2023-07-20T03:38:24;15.70;73.60
69595;DHT22;56800;52.142;5.364;2023-07-20T03:40:52;15.80;73.70
69595;DHT22;56800;52.142;5.364;2023-07-20T03:43:19;15.80;73.70
69595;DHT22;56800;52.142;5.364;2023-07-20T03:45:46;15.80;73.70
69595;DHT22;56800;52.142;5.364;2023-07-20T03:48:16;15.70;73.70
69595;DHT22;56800;52.142;5.364;2023-07-20T03:50:47;15.70;73.60
69595;DHT22;56800;52.142;5.364;2023-07-20T03:53:15;15.70;73.70
69595;DHT22;56800;52.142;5.364;2023-07-20T03:55:46;15.60;73.60
69595;DHT22;56800;52.142;5.364;2023-07-20T03:58:14;15.70;73.80
69595;DHT22;56800;52.142;5.364;2023-07-20T04:00:49;15.60;73.70
69595;DHT22;56800;52.142;5.364;2023-07-20T04:03:18;15.70;73.90
69595;DHT22;56800;52.142;5.364;2023-07-20T04:05:45;15.70;73.90
69595;DHT22;56800;52.142;5.364;2023-07-20T04:08:12;15.60;73.90
69595;DHT22;56800;52.142;5.364;2023-07-20T04:10:39;15.70;74.10
69595;DHT22;56800;52.142;5.364;2023-07-20T04:13:06;15.70;74.10
69595;DHT22;56800;52.142;5.364;2023-07-20T04:15:33;15.70;74.10
69595;DHT22;56800;52.142;5.364;2023-07-20T04:18:00;15.70;74.10
69595;DHT22;56800;52.142;5.364;2023-07-20T04:20:27;15.70;74.00
69595;DHT22;56800;52.142;5.364;2023-07-20T04:22:54;15.70;74.10
69595;DHT22;56800;52.142;5.364;2023-07-20T04:25:21;15.70;74.10
69595;DHT22;56800;52.142;5.364;2023-07-20T04:27:47;15.60;73.90
69595;DHT22;56800;52.142;5.364;2023-07-20T04:30:17;15.60;74.00
69595;DHT22;56800;52.142;5.364;2023-07-20T04:32:46;15.60;74.10
69595;DHT22;56800;52.142;5.364;2023-07-20T04:35:44;15.60;74.00
69595;DHT22;56800;52.142;5.364;2023-07-20T04:38:04;15.60;74.00
69595;DHT22;56800;52.142;5.364;2023-07-20T04:40:31;15.60;74.10
69595;DHT22;56800;52.142;5.364;2023-07-20T04:42:58;15.60;74.10
69595;DHT22;56800;52.142;5.364;2023-07-20T04:45:25;15.60;74.20
69595;DHT22;56800;52.142;5.364;2023-07-20T04:47:51;15.60;74.20
69595;DHT22;56800;52.142;5.364;2023-07-20T04:50:18;15.60;74.20
69595;DHT22;56800;52.142;5.364;2023-07-20T04:52:45;15.70;74.30
69595;DHT22;56800;52.142;5.364;2023-07-20T04:55:12;15.70;74.20
69595;DHT22;56800;52.142;5.364;2023-07-20T04:57:39;15.70;74.20
69595;DHT22;56800;52.142;5.364;2023-07-20T05:00:06;15.70;74.20
69595;DHT22;56800;52.142;5.364;2023-07-20T05:02:33;15.70;74.20
69595;DHT22;56800;52.142;5.364;2023-07-20T05:05:00;15.80;74.30
69595;DHT22;56800;52.142;5.364;2023-07-20T05:07:27;15.70;74.30
69595;DHT22;56800;52.142;5.364;2023-07-20T05:09:54;15.80;74.40
69595;DHT22;56800;52.142;5.364;2023-07-20T05:12:21;15.80;74.40
69595;DHT22;56800;52.142;5.364;2023-07-20T05:14:47;15.80;74.40
69595;DHT22;56800;52.142;5.364;2023-07-20T05:17:14;15.80;74.50
69595;DHT22;56800;52.142;5.364;2023-07-20T05:19:41;15.80;74.50
69595;DHT22;56800;52.142;5.364;2023-07-20T05:22:13;15.90;74.60
69595;DHT22;56800;52.142;5.364;2023-07-20T05:24:40;15.90;74.60
69595;DHT22;56800;52.142;5.364;2023-07-20T05:27:06;15.90;74.60
69595;DHT22;56800;52.142;5.364;2023-07-20T05:29:33;16.00;74.50
69595;DHT22;56800;52.142;5.364;2023-07-20T05:32:00;16.00;74.40
69595;DHT22;56800;52.142;5.364;2023-07-20T05:34:27;16.00;74.40
69595;DHT22;56800;52.142;5.364;2023-07-20T05:36:53;16.00;74.30
69595;DHT22;56800;52.142;5.364;2023-07-20T05:39:20;16.00;74.30
69595;DHT22;56800;52.142;5.364;2023-07-20T05:41:47;16.00;75.00
69595;DHT22;56800;52.142;5.364;2023-07-20T05:44:13;16.10;74.30
69595;DHT22;56800;52.142;5.364;2023-07-20T05:46:40;16.10;74.30
69595;DHT22;56800;52.142;5.364;2023-07-20T05:49:22;16.10;74.30
69595;DHT22;56800;52.142;5.364;2023-07-20T05:51:49;16.10;74.20
69595;DHT22;56800;52.142;5.364;2023-07-20T05:54:16;16.10;74.10
69595;DHT22;56800;52.142;5.364;2023-07-20T05:56:43;16.10;74.10
69595;DHT22;56800;52.142;5.364;2023-07-20T05:59:09;16.10;74.10
69595;DHT22;56800;52.142;5.364;2023-07-20T06:01:36;16.10;74.10
69595;DHT22;56800;52.142;5.364;2023-07-20T06:04:03;16.10;74.10
69595;DHT22;56800;52.142;5.364;2023-07-20T06:06:30;16.20;74.10
69595;DHT22;56800;52.142;5.364;2023-07-20T06:08:57;16.20;74.10
69595;DHT22;56800;52.142;5.364;2023-07-20T06:11:24;16.20;74.10
69595;DHT22;56800;52.142;5.364;2023-07-20T06:13:50;16.30;74.10
69595;DHT22;56800;52.142;5.364;2023-07-20T06:16:17;16.30;74.10
69595;DHT22;56800;52.142;5.364;2023-07-20T06:18:44;16.30;74.00
69595;DHT22;56800;52.142;5.364;2023-07-20T06:21:12;16.30;74.00
69595;DHT22;56800;52.142;5.364;2023-07-20T06:23:39;16.40;74.10
69595;DHT22;56800;52.142;5.364;2023-07-20T06:26:06;16.40;74.10
69595;DHT22;56800;52.142;5.364;2023-07-20T06:28:34;16.40;74.10
69595;DHT22;56800;52.142;5.364;2023-07-20T06:31:02;16.50;74.10
69595;DHT22;56800;52.142;5.364;2023-07-20T06:33:29;16.50;74.10
69595;DHT22;56800;52.142;5.364;2023-07-20T06:35:56;16.60;74.20
69595;DHT22;56800;52.142;5.364;2023-07-20T06:38:32;16.60;74.10
69595;DHT22;56800;52.142;5.364;2023-07-20T06:40:58;16.60;74.10
69595;DHT22;56800;52.142;5.364;2023-07-20T06:43:46;16.70;74.00
69595;DHT22;56800;52.142;5.364;2023-07-20T06:46:14;16.80;73.90
69595;DHT22;56800;52.142;5.364;2023-07-20T06:48:41;16.80;73.50
69595;DHT22;56800;52.142;5.364;2023-07-20T06:51:11;16.90;73.70
69595;DHT22;56800;52.142;5.364;2023-07-20T06:53:37;16.90;73.20
69595;DHT22;56800;52.142;5.364;2023-07-20T06:56:05;17.00;72.90
69595;DHT22;56800;52.142;5.364;2023-07-20T06:58:32;17.10;72.90
69595;DHT22;56800;52.142;5.364;2023-07-20T07:00:59;17.10;72.70
69595;DHT22;56800;52.142;5.364;2023-07-20T07:03:30;17.20;72.70
69595;DHT22;56800;52.142;5.364;2023-07-20T07:05:57;17.30;72.50
69595;DHT22;56800;52.142;5.364;2023-07-20T07:08:24;17.40;72.40
69595;DHT22;56800;52.142;5.364;2023-07-20T07:10:51;17.50;72.00
69595;DHT22;56800;52.142;5.364;2023-07-20T07:13:19;17.60;71.80
69595;DHT22;56800;52.142;5.364;2023-07-20T07:15:46;17.70;71.80
69595;DHT22;56800;52.142;5.364;2023-07-20T07:18:13;17.70;71.40
69595;DHT22;56800;52.142;5.364;2023-07-20T07:20:40;17.80;71.20
69595;DHT22;56800;52.142;5.364;2023-07-20T07:23:06;17.90;71.00
69595;DHT22;56800;52.142;5.364;2023-07-20T07:25:33;18.00;70.60
69595;DHT22;56800;52.142;5.364;2023-07-20T07:28:00;18.10;70.30
69595;DHT22;56800;52.142;5.364;2023-07-20T07:30:27;18.20;69.60
69595;DHT22;56800;52.142;5.364;2023-07-20T07:32:53;18.20;70.00
69595;DHT22;56800;52.142;5.364;2023-07-20T07:35:20;18.30;69.00
69595;DHT22;56800;52.142;5.364;2023-07-20T07:37:47;18.40;68.90
69595;DHT22;56800;52.142;5.364;2023-07-20T07:40:29;18.50;68.60
69595;DHT22;56800;52.142;5.364;2023-07-20T07:42:56;18.50;68.10
69595;DHT22;56800;52.142;5.364;2023-07-20T07:45:23;18.50;67.80
69595;DHT22;56800;52.142;5.364;2023-07-20T07:47:49;18.50;67.90
69595;DHT22;56800;52.142;5.364;2023-07-20T07:50:16;18.50;67.90
69595;DHT22;56800;52.142;5.364;2023-07-20T07:52:43;18.50;67.60
69595;DHT22;56800;52.142;5.364;2023-07-20T07:55:09;18.40;67.50
69595;DHT22;56800;52.142;5.364;2023-07-20T07:57:36;18.40;67.50
69595;DHT22;56800;52.142;5.364;2023-07-20T08:00:03;18.40;67.40
69595;DHT22;56800;52.142;5.364;2023-07-20T08:02:30;18.40;67.30
69595;DHT22;56800;52.142;5.364;2023-07-20T08:04:58;18.40;66.80
69595;DHT22;56800;52.142;5.364;2023-07-20T08:07:25;18.50;66.60
69595;DHT22;56800;52.142;5.364;2023-07-20T08:09:51;18.60;66.40
69595;DHT22;56800;52.142;5.364;2023-07-20T08:12:18;18.60;65.80
69595;DHT22;56800;52.142;5.364;2023-07-20T08:14:46;18.60;65.90
69595;DHT22;56800;52.142;5.364;2023-07-20T08:17:13;18.70;66.10
69595;DHT22;56800;52.142;5.364;2023-07-20T08:19:40;18.80;66.00
69595;DHT22;56800;52.142;5.364;2023-07-20T08:22:08;18.90;65.40
69595;DHT22;56800;52.142;5.364;2023-07-20T08:24:38;19.00;65.00
69595;DHT22;56800;52.142;5.364;2023-07-20T08:27:06;19.10;64.90
69595;DHT22;56800;52.142;5.364;2023-07-20T08:29:32;19.10;64.60
69595;DHT22;56800;52.142;5.364;2023-07-20T08:31:59;19.10;64.10
69595;DHT22;56800;52.142;5.364;2023-07-20T08:34:26;19.20;64.40
69595;DHT22;56800;52.142;5.364;2023-07-20T08:36:58;19.30;63.00
69595;DHT22;56800;52.142;5.364;2023-07-20T08:39:25;19.40;62.60
69595;DHT22;56800;52.142;5.364;2023-07-20T08:41:52;19.50;62.50
69595;DHT22;56800;52.142;5.364;2023-07-20T08:44:19;19.50;62.20
69595;DHT22;56800;52.142;5.364;2023-07-20T08:46:47;19.60;62.00
69595;DHT22;56800;52.142;5.364;2023-07-20T08:49:16;19.80;61.30
69595;DHT22;56800;52.142;5.364;2023-07-20T08:51:46;19.80;60.60
69595;DHT22;56800;52.142;5.364;2023-07-20T08:54:13;20.00;60.30
69595;DHT22;56800;52.142;5.364;2023-07-20T08:56:41;20.10;59.70
69595;DHT22;56800;52.142;5.364;2023-07-20T08:59:09;20.30;59.20
69595;DHT22;56800;52.142;5.364;2023-07-20T09:01:36;20.40;58.60
69595;DHT22;56800;52.142;5.364;2023-07-20T09:04:06;20.50;58.00
69595;DHT22;56800;52.142;5.364;2023-07-20T09:06:33;20.60;57.70
69595;DHT22;56800;52.142;5.364;2023-07-20T09:09:01;20.70;57.00
69595;DHT22;56800;52.142;5.364;2023-07-20T09:11:29;20.70;56.40
69595;DHT22;56800;52.142;5.364;2023-07-20T09:14:03;20.80;55.50
69595;DHT22;56800;52.142;5.364;2023-07-20T09:16:30;20.90;53.80
69595;DHT22;56800;52.142;5.364;2023-07-20T09:19:01;20.90;52.90
69595;DHT22;56800;52.142;5.364;2023-07-20T09:21:29;20.90;52.50
69595;DHT22;56800;52.142;5.364;2023-07-20T09:23:57;21.00;52.40
69595;DHT22;56800;52.142;5.364;2023-07-20T09:26:23;21.00;52.30
69595;DHT22;56800;52.142;5.364;2023-07-20T09:28:54;21.10;51.80
69595;DHT22;56800;52.142;5.364;2023-07-20T09:31:22;21.20;51.40
69595;DHT22;56800;52.142;5.364;2023-07-20T09:33:52;21.20;51.50
69595;DHT22;56800;52.142;5.364;2023-07-20T09:36:22;21.40;51.00
69595;DHT22;56800;52.142;5.364;2023-07-20T09:39:08;21.50;50.60
69595;DHT22;56800;52.142;5.364;2023-07-20T09:41:42;21.60;50.50
69595;DHT22;56800;52.142;5.364;2023-07-20T09:44:14;21.60;49.30
69595;DHT22;56800;52.142;5.364;2023-07-20T09:46:47;21.70;48.90
69595;DHT22;56800;52.142;5.364;2023-07-20T09:49:17;21.60;48.30
69595;DHT22;56800;52.142;5.364;2023-07-20T09:51:47;21.50;48.30
69595;DHT22;56800;52.142;5.364;2023-07-20T09:54:15;21.40;48.30
69595;DHT22;56800;52.142;5.364;2023-07-20T09:56:43;21.30;48.90
69595;DHT22;56800;52.142;5.364;2023-07-20T09:59:10;21.20;49.60
69595;DHT22;56800;52.142;5.364;2023-07-20T10:01:41;21.40;49.70
69595;DHT22;56800;52.142;5.364;2023-07-20T10:04:10;21.50;48.10
69595;DHT22;56800;52.142;5.364;2023-07-20T10:06:42;21.60;47.60
69595;DHT22;56800;52.142;5.364;2023-07-20T10:09:12;21.80;47.70
69595;DHT22;56800;52.142;5.364;2023-07-20T10:11:45;21.90;47.30
69595;DHT22;56800;52.142;5.364;2023-07-20T10:14:20;22.00;47.50
69595;DHT22;56800;52.142;5.364;2023-07-20T10:16:50;22.00;48.20
69595;DHT22;56800;52.142;5.364;2023-07-20T10:19:33;21.90;46.80
69595;DHT22;56800;52.142;5.364;2023-07-20T10:22:03;21.80;46.90
69595;DHT22;56800;52.142;5.364;2023-07-20T10:24:36;21.70;46.80
69595;DHT22;56800;52.142;5.364;2023-07-20T10:27:04;21.60;47.40
69595;DHT22;56800;52.142;5.364;2023-07-20T10:29:31;21.80;47.80
69595;DHT22;56800;52.142;5.364;2023-07-20T10:31:59;22.00;47.50
69595;DHT22;56800;52.142;5.364;2023-07-20T10:34:28;22.20;47.30
69595;DHT22;56800;52.142;5.364;2023-07-20T10:36:54;22.50;46.90
69595;DHT22;56800;52.142;5.364;2023-07-20T10:39:25;22.60;46.30
69595;DHT22;56800;52.142;5.364;2023-07-20T10:42:06;22.70;46.00
69595;DHT22;56800;52.142;5.364;2023-07-20T10:44:34;22.70;45.50
69595;DHT22;56800;52.142;5.364;2023-07-20T10:47:08;22.50;45.40
69595;DHT22;56800;52.142;5.364;2023-07-20T10:49:35;22.40;45.60
69595;DHT22;56800;52.142;5.364;2023-07-20T10:52:21;22.50;46.00
69595;DHT22;56800;52.142;5.364;2023-07-20T10:54:49;22.70;46.70
69595;DHT22;56800;52.142;5.364;2023-07-20T10:57:30;22.80;46.30
69595;DHT22;56800;52.142;5.364;2023-07-20T11:00:14;22.90;44.90
69595;DHT22;56800;52.142;5.364;2023-07-20T11:02:48;23.00;44.80
69595;DHT22;56800;52.142;5.364;2023-07-20T11:05:38;23.10;44.60
69595;DHT22;56800;52.142;5.364;2023-07-20T11:08:12;23.30;44.20
69595;DHT22;56800;52.142;5.364;2023-07-20T11:10:39;23.40;43.40
69595;DHT22;56800;52.142;5.364;2023-07-20T11:13:20;23.60;42.80
69595;DHT22;56800;52.142;5.364;2023-07-20T11:16:02;23.60;41.60
69595;DHT22;56800;52.142;5.364;2023-07-20T11:18:33;23.70;41.40
69595;DHT22;56800;52.142;5.364;2023-07-20T11:21:00;23.60;41.50
69595;DHT22;56800;52.142;5.364;2023-07-20T11:23:27;23.70;41.20
69595;DHT22;56800;52.142;5.364;2023-07-20T11:25:55;23.70;40.70
69595;DHT22;56800;52.142;5.364;2023-07-20T11:28:22;23.70;40.70
69595;DHT22;56800;52.142;5.364;2023-07-20T11:30:55;23.70;41.00
69595;DHT22;56800;52.142;5.364;2023-07-20T11:33:22;23.80;41.10
69595;DHT22;56800;52.142;5.364;2023-07-20T11:35:49;23.80;41.10
69595;DHT22;56800;52.142;5.364;2023-07-20T11:38:17;23.80;41.00
69595;DHT22;56800;52.142;5.364;2023-07-20T11:40:45;23.80;40.80
69595;DHT22;56800;52.142;5.364;2023-07-20T11:43:13;23.80;40.60
69595;DHT22;56800;52.142;5.364;2023-07-20T11:45:44;23.80;40.60
69595;DHT22;56800;52.142;5.364;2023-07-20T11:48:15;23.80;40.60
69595;DHT22;56800;52.142;5.364;2023-07-20T11:50:42;23.80;40.90
69595;DHT22;56800;52.142;5.364;2023-07-20T11:53:09;23.90;41.00
69595;DHT22;56800;52.142;5.364;2023-07-20T11:55:36;24.00;41.00
69595;DHT22;56800;52.142;5.364;2023-07-20T11:58:04;24.10;41.00
69595;DHT22;56800;52.142;5.364;2023-07-20T12:00:36;24.20;40.90
69595;DHT22;56800;52.142;5.364;2023-07-20T12:03:06;24.30;40.70
69595;DHT22;56800;52.142;5.364;2023-07-20T12:05:40;24.40;40.20
69595;DHT22;56800;52.142;5.364;2023-07-20T12:08:10;24.30;40.30
69595;DHT22;56800;52.142;5.364;2023-07-20T12:10:39;24.30;40.20
69595;DHT22;56800;52.142;5.364;2023-07-20T12:13:11;24.20;40.30
69595;DHT22;56800;52.142;5.364;2023-07-20T12:15:40;24.10;40.70
69595;DHT22;56800;52.142;5.364;2023-07-20T12:18:08;24.10;41.20
69595;DHT22;56800;52.142;5.364;2023-07-20T12:20:36;24.00;41.20
69595;DHT22;56800;52.142;5.364;2023-07-20T12:23:11;24.00;41.40
69595;DHT22;56800;52.142;5.364;2023-07-20T12:25:39;23.90;41.50
69595;DHT22;56800;52.142;5.364;2023-07-20T12:28:08;23.90;41.50
69595;DHT22;56800;52.142;5.364;2023-07-20T12:30:39;23.80;41.50
69595;DHT22;56800;52.142;5.364;2023-07-20T12:33:06;23.70;42.70
69595;DHT22;56800;52.142;5.364;2023-07-20T12:35:34;23.70;41.70
69595;DHT22;56800;52.142;5.364;2023-07-20T12:38:01;23.80;41.90
69595;DHT22;56800;52.142;5.364;2023-07-20T12:40:28;23.70;41.50
69595;DHT22;56800;52.142;5.364;2023-07-20T12:42:55;23.70;41.60
69595;DHT22;56800;52.142;5.364;2023-07-20T12:45:22;23.60;41.80
69595;DHT22;56800;52.142;5.364;2023-07-20T12:47:49;23.50;41.80
69595;DHT22;56800;52.142;5.364;2023-07-20T12:50:16;23.40;42.10
69595;DHT22;56800;52.142;5.364;2023-07-20T12:52:43;23.40;42.50
69595;DHT22;56800;52.142;5.364;2023-07-20T12:55:10;23.40;42.70
69595;DHT22;56800;52.142;5.364;2023-07-20T12:57:37;23.30;42.60
69595;DHT22;56800;52.142;5.364;2023-07-20T13:00:08;23.30;42.60
69595;DHT22;56800;52.142;5.364;2023-07-20T13:02:35;23.30;42.80
69595;DHT22;56800;52.142;5.364;2023-07-20T13:05:03;23.30;43.90
69595;DHT22;56800;52.142;5.364;2023-07-20T13:07:31;23.30;42.90
69595;DHT22;56800;52.142;5.364;2023-07-20T13:10:02;23.20;42.80
69595;DHT22;56800;52.142;5.364;2023-07-20T13:12:32;23.30;43.00
69595;DHT22;56800;52.142;5.364;2023-07-20T13:15:00;23.30;43.20
69595;DHT22;56800;52.142;5.364;2023-07-20T13:17:27;23.40;43.50
69595;DHT22;56800;52.142;5.364;2023-07-20T13:19:54;23.60;43.30
69595;DHT22;56800;52.142;5.364;2023-07-20T13:22:21;23.90;43.20
69595;DHT22;56800;52.142;5.364;2023-07-20T13:24:49;24.30;42.70
69595;DHT22;56800;52.142;5.364;2023-07-20T13:27:18;24.50;42.40
69595;DHT22;56800;52.142;5.364;2023-07-20T13:29:45;24.80;41.80
69595;DHT22;56800;52.142;5.364;2023-07-20T13:32:15;25.10;41.60
69595;DHT22;56800;52.142;5.364;2023-07-20T13:34:42;25.30;40.70
69595;DHT22;56800;52.142;5.364;2023-07-20T13:37:10;25.40;40.70
69595;DHT22;56800;52.142;5.364;2023-07-20T13:39:39;25.60;40.50
69595;DHT22;56800;52.142;5.364;2023-07-20T13:42:06;25.70;39.80
69595;DHT22;56800;52.142;5.364;2023-07-20T13:44:33;25.80;39.40
69595;DHT22;56800;52.142;5.364;2023-07-20T13:47:01;25.80;39.20
69595;DHT22;56800;52.142;5.364;2023-07-20T13:49:31;25.80;38.90
69595;DHT22;56800;52.142;5.364;2023-07-20T13:52:02;25.80;39.10
69595;DHT22;56800;52.142;5.364;2023-07-20T13:54:32;25.70;40.20
69595;DHT22;56800;52.142;5.364;2023-07-20T13:56:59;25.50;39.40
69595;DHT22;56800;52.142;5.364;2023-07-20T13:59:25;25.40;39.60
69595;DHT22;56800;52.142;5.364;2023-07-20T14:01:52;25.20;39.70
69595;DHT22;56800;52.142;5.364;2023-07-20T14:04:39;25.10;40.10
69595;DHT22;56800;52.142;5.364;2023-07-20T14:07:06;25.20;40.80
69595;DHT22;56800;52.142;5.364;2023-07-20T14:09:33;25.30;40.70
69595;DHT22;56800;52.142;5.364;2023-07-20T14:12:00;25.60;40.20
69595;DHT22;56800;52.142;5.364;2023-07-20T14:14:30;25.80;40.20
69595;DHT22;56800;52.142;5.364;2023-07-20T14:16:56;26.00;40.10
69595;DHT22;56800;52.142;5.364;2023-07-20T14:19:23;26.20;40.30
69595;DHT22;56800;52.142;5.364;2023-07-20T14:21:50;26.40;39.60
69595;DHT22;56800;52.142;5.364;2023-07-20T14:24:17;26.40;39.20
69595;DHT22;56800;52.142;5.364;2023-07-20T14:26:45;26.20;38.50
69595;DHT22;56800;52.142;5.364;2023-07-20T14:29:18;26.10;38.70
69595;DHT22;56800;52.142;5.364;2023-07-20T14:31:45;26.00;39.20
69595;DHT22;56800;52.142;5.364;2023-07-20T14:34:16;26.00;39.40
69595;DHT22;56800;52.142;5.364;2023-07-20T14:36:43;26.10;39.00
69595;DHT22;56800;52.142;5.364;2023-07-20T14:39:09;26.10;38.80
69595;DHT22;56800;52.142;5.364;2023-07-20T14:41:36;26.00;38.70
69595;DHT22;56800;52.142;5.364;2023-07-20T14:44:03;25.90;39.10
69595;DHT22;56800;52.142;5.364;2023-07-20T14:46:31;25.80;39.20
69595;DHT22;56800;52.142;5.364;2023-07-20T14:48:59;25.60;40.00
69595;DHT22;56800;52.142;5.364;2023-07-20T14:51:25;25.50;39.10
69595;DHT22;56800;52.142;5.364;2023-07-20T14:54:03;25.40;40.30
69595;DHT22;56800;52.142;5.364;2023-07-20T14:56:30;25.30;39.40
69595;DHT22;56800;52.142;5.364;2023-07-20T15:13:03;25.40;38.00
69595;DHT22;56800;52.142;5.364;2023-07-20T15:15:31;25.30;39.00
69595;DHT22;56800;52.142;5.364;2023-07-20T15:17:58;25.10;39.20
69595;DHT22;56800;52.142;5.364;2023-07-20T15:20:25;25.00;39.50
69595;DHT22;56800;52.142;5.364;2023-07-20T15:22:53;24.80;39.60
69595;DHT22;56800;52.142;5.364;2023-07-20T15:25:19;24.70;39.40
69595;DHT22;56800;52.142;5.364;2023-07-20T15:27:46;24.70;39.70
69595;DHT22;56800;52.142;5.364;2023-07-20T15:30:17;24.60;39.90
69595;DHT22;56800;52.142;5.364;2023-07-20T15:32:47;24.50;40.20
69595;DHT22;56800;52.142;5.364;2023-07-20T15:35:17;24.40;40.40
69595;DHT22;56800;52.142;5.364;2023-07-20T15:37:45;24.40;40.60
69595;DHT22;56800;52.142;5.364;2023-07-20T15:40:12;24.30;40.60
69595;DHT22;56800;52.142;5.364;2023-07-20T15:42:38;24.30;40.10
69595;DHT22;56800;52.142;5.364;2023-07-20T15:45:06;24.20;40.00
69595;DHT22;56800;52.142;5.364;2023-07-20T15:47:33;24.10;40.00
69595;DHT22;56800;52.142;5.364;2023-07-20T15:50:00;24.10;40.30
69595;DHT22;56800;52.142;5.364;2023-07-20T15:52:27;24.00;40.60
69595;DHT22;56800;52.142;5.364;2023-07-20T15:54:56;23.90;41.00
69595;DHT22;56800;52.142;5.364;2023-07-20T15:57:24;23.80;41.50
69595;DHT22;56800;52.142;5.364;2023-07-20T15:59:50;23.80;42.60